sensor_id;sensor_type;location;lat;lon;timestamp;P1;durP1;ratioP1;P2;durP2;ratioP2
65275;SDS011;51875;49.994;14.052;2023-04-03T00:00:37;3.47;;;2.30;;
65275;SDS011;51875;49.994;14.052;2023-04-03T00:02:05;5.07;;;2.25;;
65275;SDS011;51875;49.994;14.052;2023-04-03T00:03:20;6.40;;;2.20;;
65275;SDS011;51875;49.994;14.052;2023-04-03T00:04:36;4.15;;;2.30;;
65275;SDS011;51875;49.994;14.052;2023-04-03T00:05:51;7.68;;;2.83;;
65275;SDS011;51875;49.994;14.052;2023-04-03T00:07:07;4.40;;;2.28;;
65275;SDS011;51875;49.994;14.052;2023-04-03T00:08:22;4.65;;;2.17;;
65275;SDS011;51875;49.994;14.052;2023-04-03T00:09:38;4.30;;;2.20;;
65275;SDS011;51875;49.994;14.052;2023-04-03T00:10:53;7.38;;;2.40;;
65275;SDS011;51875;49.994;14.052;2023-04-03T00:12:09;6.15;;;2.00;;
65275;SDS011;51875;49.994;14.052;2023-04-03T00:13:25;3.28;;;1.92;;
65275;SDS011;51875;49.994;14.052;2023-04-03T00:14:41;4.82;;;2.03;;
65275;SDS011;51875;49.994;14.052;2023-04-03T00:15:57;4.22;;;2.15;;
65275;SDS011;51875;49.994;14.052;2023-04-03T00:17:12;4.82;;;2.20;;
65275;SDS011;51875;49.994;14.052;2023-04-03T00:18:28;4.47;;;1.88;;
65275;SDS011;51875;49.994;14.052;2023-04-03T00:19:44;4.07;;;2.40;;
65275;SDS011;51875;49.994;14.052;2023-04-03T00:21:00;4.68;;;2.50;;
65275;SDS011;51875;49.994;14.052;2023-04-03T00:22:15;5.43;;;2.38;;
65275;SDS011;51875;49.994;14.052;2023-04-03T00:23:31;3.60;;;2.08;;
65275;SDS011;51875;49.994;14.052;2023-04-03T00:24:47;3.70;;;1.73;;
65275;SDS011;51875;49.994;14.052;2023-04-03T00:26:03;5.47;;;2.85;;
65275;SDS011;51875;49.994;14.052;2023-04-03T00:27:18;3.85;;;2.17;;
65275;SDS011;51875;49.994;14.052;2023-04-03T00:28:33;6.72;;;2.80;;
65275;SDS011;51875;49.994;14.052;2023-04-03T00:29:49;5.20;;;2.05;;
65275;SDS011;51875;49.994;14.052;2023-04-03T00:31:05;3.88;;;2.20;;
65275;SDS011;51875;49.994;14.052;2023-04-03T00:32:20;3.85;;;2.03;;
65275;SDS011;51875;49.994;14.052;2023-04-03T00:33:36;5.05;;;2.28;;
65275;SDS011;51875;49.994;14.052;2023-04-03T00:34:52;6.93;;;2.05;;
65275;SDS011;51875;49.994;14.052;2023-04-03T00:36:10;3.97;;;1.95;;
65275;SDS011;51875;49.994;14.052;2023-04-03T00:37:27;2.92;;;1.63;;
65275;SDS011;51875;49.994;14.052;2023-04-03T00:38:43;3.10;;;2.15;;
65275;SDS011;51875;49.994;14.052;2023-04-03T00:39:58;5.22;;;2.10;;
65275;SDS011;51875;49.994;14.052;2023-04-03T00:41:14;3.95;;;2.05;;
65275;SDS011;51875;49.994;14.052;2023-04-03T00:42:30;2.55;;;1.70;;
65275;SDS011;51875;49.994;14.052;2023-04-03T00:43:46;3.60;;;2.05;;
65275;SDS011;51875;49.994;14.052;2023-04-03T00:46:17;4.43;;;2.10;;
65275;SDS011;51875;49.994;14.052;2023-04-03T00:47:33;3.90;;;2.20;;
65275;SDS011;51875;49.994;14.052;2023-04-03T00:48:48;5.38;;;1.98;;
65275;SDS011;51875;49.994;14.052;2023-04-03T00:50:05;3.83;;;1.90;;
65275;SDS011;51875;49.994;14.052;2023-04-03T00:51:22;4.20;;;2.28;;
65275;SDS011;51875;49.994;14.052;2023-04-03T00:52:39;6.43;;;2.30;;
65275;SDS011;51875;49.994;14.052;2023-04-03T00:53:56;3.70;;;2.20;;
65275;SDS011;51875;49.994;14.052;2023-04-03T00:55:15;5.35;;;1.90;;
65275;SDS011;51875;49.994;14.052;2023-04-03T00:56:31;3.92;;;2.03;;
65275;SDS011;51875;49.994;14.052;2023-04-03T00:57:47;4.60;;;2.28;;
65275;SDS011;51875;49.994;14.052;2023-04-03T00:59:04;5.68;;;2.55;;
65275;SDS011;51875;49.994;14.052;2023-04-03T01:00:23;4.38;;;1.90;;
65275;SDS011;51875;49.994;14.052;2023-04-03T01:01:40;3.92;;;1.95;;
65275;SDS011;51875;49.994;14.052;2023-04-03T01:02:57;4.15;;;1.80;;
65275;SDS011;51875;49.994;14.052;2023-04-03T01:05:46;3.50;;;1.80;;
65275;SDS011;51875;49.994;14.052;2023-04-03T01:07:04;4.75;;;1.90;;
65275;SDS011;51875;49.994;14.052;2023-04-03T01:08:23;4.35;;;2.10;;
65275;SDS011;51875;49.994;14.052;2023-04-03T01:09:39;4.40;;;2.15;;
65275;SDS011;51875;49.994;14.052;2023-04-03T01:10:55;4.45;;;1.88;;
65275;SDS011;51875;49.994;14.052;2023-04-03T01:12:12;5.50;;;1.92;;
65275;SDS011;51875;49.994;14.052;2023-04-03T01:13:48;4.05;;;2.25;;
65275;SDS011;51875;49.994;14.052;2023-04-03T01:15:07;4.85;;;1.55;;
65275;SDS011;51875;49.994;14.052;2023-04-03T01:16:27;4.68;;;2.03;;
65275;SDS011;51875;49.994;14.052;2023-04-03T01:17:46;3.45;;;2.13;;
65275;SDS011;51875;49.994;14.052;2023-04-03T01:19:07;4.45;;;1.77;;
65275;SDS011;51875;49.994;14.052;2023-04-03T01:22:13;4.28;;;1.90;;
65275;SDS011;51875;49.994;14.052;2023-04-03T01:24:50;4.63;;;2.13;;
65275;SDS011;51875;49.994;14.052;2023-04-03T01:26:08;5.75;;;2.00;;
65275;SDS011;51875;49.994;14.052;2023-04-03T01:27:25;3.90;;;1.92;;
65275;SDS011;51875;49.994;14.052;2023-04-03T01:28:41;4.25;;;1.85;;
65275;SDS011;51875;49.994;14.052;2023-04-03T01:29:56;5.70;;;1.60;;
65275;SDS011;51875;49.994;14.052;2023-04-03T01:32:54;3.50;;;1.67;;
65275;SDS011;51875;49.994;14.052;2023-04-03T01:34:09;2.13;;;1.80;;
65275;SDS011;51875;49.994;14.052;2023-04-03T01:35:25;5.45;;;1.92;;
65275;SDS011;51875;49.994;14.052;2023-04-03T01:36:40;3.75;;;1.67;;
65275;SDS011;51875;49.994;14.052;2023-04-03T01:37:56;5.65;;;2.33;;
65275;SDS011;51875;49.994;14.052;2023-04-03T01:39:12;5.05;;;1.80;;
65275;SDS011;51875;49.994;14.052;2023-04-03T01:40:28;4.35;;;2.03;;
65275;SDS011;51875;49.994;14.052;2023-04-03T01:41:44;4.38;;;2.00;;
65275;SDS011;51875;49.994;14.052;2023-04-03T01:43:00;3.15;;;1.75;;
65275;SDS011;51875;49.994;14.052;2023-04-03T01:44:15;4.20;;;1.90;;
65275;SDS011;51875;49.994;14.052;2023-04-03T01:45:31;5.40;;;2.10;;
65275;SDS011;51875;49.994;14.052;2023-04-03T01:46:46;4.40;;;1.50;;
65275;SDS011;51875;49.994;14.052;2023-04-03T01:48:02;2.75;;;1.20;;
65275;SDS011;51875;49.994;14.052;2023-04-03T01:49:18;4.05;;;1.50;;
65275;SDS011;51875;49.994;14.052;2023-04-03T01:50:34;3.45;;;1.27;;
65275;SDS011;51875;49.994;14.052;2023-04-03T01:51:49;4.72;;;1.88;;
65275;SDS011;51875;49.994;14.052;2023-04-03T01:53:05;2.53;;;1.20;;
65275;SDS011;51875;49.994;14.052;2023-04-03T01:54:21;5.03;;;1.65;;
65275;SDS011;51875;49.994;14.052;2023-04-03T01:55:36;3.83;;;1.30;;
65275;SDS011;51875;49.994;14.052;2023-04-03T01:56:51;2.83;;;0.98;;
65275;SDS011;51875;49.994;14.052;2023-04-03T01:58:07;4.93;;;1.80;;
65275;SDS011;51875;49.994;14.052;2023-04-03T01:59:23;3.67;;;1.30;;
65275;SDS011;51875;49.994;14.052;2023-04-03T02:00:38;2.30;;;1.48;;
65275;SDS011;51875;49.994;14.052;2023-04-03T02:01:54;1.23;;;1.08;;
65275;SDS011;51875;49.994;14.052;2023-04-03T02:03:10;5.25;;;1.50;;
65275;SDS011;51875;49.994;14.052;2023-04-03T02:04:25;5.65;;;1.30;;
65275;SDS011;51875;49.994;14.052;2023-04-03T02:05:41;2.45;;;1.20;;
65275;SDS011;51875;49.994;14.052;2023-04-03T02:06:56;3.10;;;1.40;;
65275;SDS011;51875;49.994;14.052;2023-04-03T02:08:12;3.42;;;1.48;;
65275;SDS011;51875;49.994;14.052;2023-04-03T02:09:28;4.95;;;1.70;;
65275;SDS011;51875;49.994;14.052;2023-04-03T02:10:44;8.07;;;1.65;;
65275;SDS011;51875;49.994;14.052;2023-04-03T02:12:02;5.47;;;1.48;;
65275;SDS011;51875;49.994;14.052;2023-04-03T02:13:18;2.72;;;1.25;;
65275;SDS011;51875;49.994;14.052;2023-04-03T02:14:34;7.03;;;1.40;;
65275;SDS011;51875;49.994;14.052;2023-04-03T02:15:49;3.67;;;1.65;;
65275;SDS011;51875;49.994;14.052;2023-04-03T02:17:05;2.78;;;1.23;;
65275;SDS011;51875;49.994;14.052;2023-04-03T02:18:23;4.47;;;1.55;;
65275;SDS011;51875;49.994;14.052;2023-04-03T02:19:39;2.97;;;1.38;;
65275;SDS011;51875;49.994;14.052;2023-04-03T02:20:55;6.53;;;1.67;;
65275;SDS011;51875;49.994;14.052;2023-04-03T02:22:10;2.58;;;0.93;;
65275;SDS011;51875;49.994;14.052;2023-04-03T02:23:25;2.20;;;1.00;;
65275;SDS011;51875;49.994;14.052;2023-04-03T02:24:41;5.20;;;1.50;;
65275;SDS011;51875;49.994;14.052;2023-04-03T02:26:04;1.13;;;0.80;;
65275;SDS011;51875;49.994;14.052;2023-04-03T02:27:24;1.63;;;0.90;;
65275;SDS011;51875;49.994;14.052;2023-04-03T02:28:40;1.95;;;1.20;;
65275;SDS011;51875;49.994;14.052;2023-04-03T02:29:56;4.43;;;1.10;;
65275;SDS011;51875;49.994;14.052;2023-04-03T02:31:11;3.08;;;1.23;;
65275;SDS011;51875;49.994;14.052;2023-04-03T02:32:27;1.40;;;0.82;;
65275;SDS011;51875;49.994;14.052;2023-04-03T02:33:43;3.90;;;1.13;;
65275;SDS011;51875;49.994;14.052;2023-04-03T02:34:58;3.28;;;1.00;;
65275;SDS011;51875;49.994;14.052;2023-04-03T02:36:14;3.70;;;1.40;;
65275;SDS011;51875;49.994;14.052;2023-04-03T02:37:29;3.28;;;1.08;;
65275;SDS011;51875;49.994;14.052;2023-04-03T02:38:45;1.48;;;1.08;;
65275;SDS011;51875;49.994;14.052;2023-04-03T02:40:01;2.35;;;0.80;;
65275;SDS011;51875;49.994;14.052;2023-04-03T02:41:16;1.38;;;0.90;;
65275;SDS011;51875;49.994;14.052;2023-04-03T02:42:32;2.08;;;1.08;;
65275;SDS011;51875;49.994;14.052;2023-04-03T02:43:48;2.97;;;1.25;;
65275;SDS011;51875;49.994;14.052;2023-04-03T02:45:03;4.28;;;1.85;;
65275;SDS011;51875;49.994;14.052;2023-04-03T02:46:19;4.15;;;1.05;;
65275;SDS011;51875;49.994;14.052;2023-04-03T02:47:35;2.70;;;1.42;;
65275;SDS011;51875;49.994;14.052;2023-04-03T02:48:50;3.38;;;1.20;;
65275;SDS011;51875;49.994;14.052;2023-04-03T02:50:06;4.07;;;1.05;;
65275;SDS011;51875;49.994;14.052;2023-04-03T02:51:22;4.15;;;1.05;;
65275;SDS011;51875;49.994;14.052;2023-04-03T02:52:38;1.23;;;0.80;;
65275;SDS011;51875;49.994;14.052;2023-04-03T02:53:53;1.60;;;0.80;;
65275;SDS011;51875;49.994;14.052;2023-04-03T02:55:09;4.40;;;1.75;;
65275;SDS011;51875;49.994;14.052;2023-04-03T02:56:29;3.50;;;1.33;;
65275;SDS011;51875;49.994;14.052;2023-04-03T02:57:45;1.23;;;0.90;;
65275;SDS011;51875;49.994;14.052;2023-04-03T02:59:00;3.30;;;1.17;;
65275;SDS011;51875;49.994;14.052;2023-04-03T03:00:16;6.75;;;1.63;;
65275;SDS011;51875;49.994;14.052;2023-04-03T03:01:32;5.03;;;1.50;;
65275;SDS011;51875;49.994;14.052;2023-04-03T03:02:48;2.85;;;1.13;;
65275;SDS011;51875;49.994;14.052;2023-04-03T03:04:04;5.90;;;1.10;;
65275;SDS011;51875;49.994;14.052;2023-04-03T03:05:20;3.55;;;1.30;;
65275;SDS011;51875;49.994;14.052;2023-04-03T03:06:35;3.05;;;1.02;;
65275;SDS011;51875;49.994;14.052;2023-04-03T03:07:51;4.55;;;1.40;;
65275;SDS011;51875;49.994;14.052;2023-04-03T03:09:06;3.17;;;1.25;;
65275;SDS011;51875;49.994;14.052;2023-04-03T03:10:23;1.38;;;0.80;;
65275;SDS011;51875;49.994;14.052;2023-04-03T03:11:39;2.50;;;0.82;;
65275;SDS011;51875;49.994;14.052;2023-04-03T03:12:54;5.03;;;1.13;;
65275;SDS011;51875;49.994;14.052;2023-04-03T03:14:10;1.92;;;1.00;;
65275;SDS011;51875;49.994;14.052;2023-04-03T03:15:25;1.95;;;0.75;;
65275;SDS011;51875;49.994;14.052;2023-04-03T03:16:41;5.38;;;1.00;;
65275;SDS011;51875;49.994;14.052;2023-04-03T03:17:57;3.72;;;1.10;;
65275;SDS011;51875;49.994;14.052;2023-04-03T03:19:12;3.00;;;1.20;;
65275;SDS011;51875;49.994;14.052;2023-04-03T03:20:28;3.47;;;1.10;;
65275;SDS011;51875;49.994;14.052;2023-04-03T03:21:43;3.80;;;1.02;;
65275;SDS011;51875;49.994;14.052;2023-04-03T03:22:59;4.55;;;1.48;;
65275;SDS011;51875;49.994;14.052;2023-04-03T03:24:14;3.08;;;0.88;;
65275;SDS011;51875;49.994;14.052;2023-04-03T03:25:31;2.60;;;0.68;;
65275;SDS011;51875;49.994;14.052;2023-04-03T03:26:46;1.98;;;0.70;;
65275;SDS011;51875;49.994;14.052;2023-04-03T03:28:02;3.78;;;1.02;;
65275;SDS011;51875;49.994;14.052;2023-04-03T03:29:17;1.77;;;0.70;;
65275;SDS011;51875;49.994;14.052;2023-04-03T03:30:33;1.50;;;0.93;;
65275;SDS011;51875;49.994;14.052;2023-04-03T03:31:48;4.85;;;0.75;;
65275;SDS011;51875;49.994;14.052;2023-04-03T03:33:04;2.75;;;1.00;;
65275;SDS011;51875;49.994;14.052;2023-04-03T03:34:20;7.05;;;1.08;;
65275;SDS011;51875;49.994;14.052;2023-04-03T03:35:35;2.35;;;0.93;;
65275;SDS011;51875;49.994;14.052;2023-04-03T03:36:51;2.80;;;1.27;;
65275;SDS011;51875;49.994;14.052;2023-04-03T03:38:06;3.05;;;1.10;;
65275;SDS011;51875;49.994;14.052;2023-04-03T03:39:22;2.10;;;0.90;;
65275;SDS011;51875;49.994;14.052;2023-04-03T03:40:37;6.43;;;0.90;;
65275;SDS011;51875;49.994;14.052;2023-04-03T03:41:53;4.40;;;0.98;;
65275;SDS011;51875;49.994;14.052;2023-04-03T03:43:09;1.95;;;1.08;;
65275;SDS011;51875;49.994;14.052;2023-04-03T03:44:24;2.30;;;1.30;;
65275;SDS011;51875;49.994;14.052;2023-04-03T03:45:40;4.13;;;1.02;;
65275;SDS011;51875;49.994;14.052;2023-04-03T03:46:56;3.72;;;1.08;;
65275;SDS011;51875;49.994;14.052;2023-04-03T03:48:11;4.25;;;1.00;;
65275;SDS011;51875;49.994;14.052;2023-04-03T03:49:27;3.95;;;1.05;;
65275;SDS011;51875;49.994;14.052;2023-04-03T03:50:43;1.27;;;0.93;;
65275;SDS011;51875;49.994;14.052;2023-04-03T03:51:58;3.58;;;1.15;;
65275;SDS011;51875;49.994;14.052;2023-04-03T03:53:14;4.50;;;1.45;;
65275;SDS011;51875;49.994;14.052;2023-04-03T03:54:30;3.42;;;0.88;;
65275;SDS011;51875;49.994;14.052;2023-04-03T03:55:45;5.05;;;1.30;;
65275;SDS011;51875;49.994;14.052;2023-04-03T03:57:01;1.50;;;0.90;;
65275;SDS011;51875;49.994;14.052;2023-04-03T03:58:16;2.08;;;0.90;;
65275;SDS011;51875;49.994;14.052;2023-04-03T03:59:32;1.83;;;0.95;;
65275;SDS011;51875;49.994;14.052;2023-04-03T04:00:48;2.10;;;0.70;;
65275;SDS011;51875;49.994;14.052;2023-04-03T04:02:03;2.53;;;0.73;;
65275;SDS011;51875;49.994;14.052;2023-04-03T04:03:19;2.80;;;1.08;;
65275;SDS011;51875;49.994;14.052;2023-04-03T04:04:36;2.67;;;1.13;;
65275;SDS011;51875;49.994;14.052;2023-04-03T04:05:52;2.58;;;0.80;;
65275;SDS011;51875;49.994;14.052;2023-04-03T04:07:07;2.10;;;1.23;;
65275;SDS011;51875;49.994;14.052;2023-04-03T04:08:23;1.67;;;0.73;;
65275;SDS011;51875;49.994;14.052;2023-04-03T04:09:39;1.40;;;0.75;;
65275;SDS011;51875;49.994;14.052;2023-04-03T04:10:55;2.10;;;1.25;;
65275;SDS011;51875;49.994;14.052;2023-04-03T04:12:11;4.25;;;1.23;;
65275;SDS011;51875;49.994;14.052;2023-04-03T04:13:26;2.10;;;1.13;;
65275;SDS011;51875;49.994;14.052;2023-04-03T04:14:42;4.32;;;1.45;;
65275;SDS011;51875;49.994;14.052;2023-04-03T04:15:57;1.20;;;0.70;;
65275;SDS011;51875;49.994;14.052;2023-04-03T04:17:13;1.90;;;0.93;;
65275;SDS011;51875;49.994;14.052;2023-04-03T04:18:29;1.92;;;0.70;;
65275;SDS011;51875;49.994;14.052;2023-04-03T04:19:45;2.10;;;0.70;;
65275;SDS011;51875;49.994;14.052;2023-04-03T04:21:01;2.22;;;0.70;;
65275;SDS011;51875;49.994;14.052;2023-04-03T04:22:16;3.53;;;0.80;;
65275;SDS011;51875;49.994;14.052;2023-04-03T04:23:32;1.85;;;0.80;;
65275;SDS011;51875;49.994;14.052;2023-04-03T04:24:47;4.60;;;1.52;;
65275;SDS011;51875;49.994;14.052;2023-04-03T04:26:03;0.70;;;0.45;;
65275;SDS011;51875;49.994;14.052;2023-04-03T04:27:19;2.13;;;0.93;;
65275;SDS011;51875;49.994;14.052;2023-04-03T04:28:34;1.75;;;1.15;;
65275;SDS011;51875;49.994;14.052;2023-04-03T04:29:50;3.03;;;1.30;;
65275;SDS011;51875;49.994;14.052;2023-04-03T04:31:05;5.25;;;1.83;;
65275;SDS011;51875;49.994;14.052;2023-04-03T04:32:21;3.53;;;1.38;;
65275;SDS011;51875;49.994;14.052;2023-04-03T04:33:37;3.80;;;1.40;;
65275;SDS011;51875;49.994;14.052;2023-04-03T04:34:52;4.50;;;1.40;;
65275;SDS011;51875;49.994;14.052;2023-04-03T04:36:08;1.60;;;1.10;;
65275;SDS011;51875;49.994;14.052;2023-04-03T04:37:23;2.22;;;0.98;;
65275;SDS011;51875;49.994;14.052;2023-04-03T04:38:39;1.45;;;0.93;;
65275;SDS011;51875;49.994;14.052;2023-04-03T04:39:54;4.72;;;1.10;;
65275;SDS011;51875;49.994;14.052;2023-04-03T04:41:10;4.10;;;1.30;;
65275;SDS011;51875;49.994;14.052;2023-04-03T04:42:26;3.58;;;1.60;;
65275;SDS011;51875;49.994;14.052;2023-04-03T04:43:41;5.47;;;1.27;;
65275;SDS011;51875;49.994;14.052;2023-04-03T04:44:57;2.53;;;0.90;;
65275;SDS011;51875;49.994;14.052;2023-04-03T04:46:12;3.33;;;1.33;;
65275;SDS011;51875;49.994;14.052;2023-04-03T04:47:28;3.78;;;1.30;;
65275;SDS011;51875;49.994;14.052;2023-04-03T04:48:45;6.93;;;1.30;;
65275;SDS011;51875;49.994;14.052;2023-04-03T04:50:00;2.85;;;1.33;;
65275;SDS011;51875;49.994;14.052;2023-04-03T04:51:16;3.28;;;1.33;;
65275;SDS011;51875;49.994;14.052;2023-04-03T04:52:31;5.05;;;1.33;;
65275;SDS011;51875;49.994;14.052;2023-04-03T04:53:47;6.07;;;1.38;;
65275;SDS011;51875;49.994;14.052;2023-04-03T04:55:03;4.20;;;1.23;;
65275;SDS011;51875;49.994;14.052;2023-04-03T04:56:19;4.18;;;1.27;;
65275;SDS011;51875;49.994;14.052;2023-04-03T04:57:35;6.50;;;1.50;;
65275;SDS011;51875;49.994;14.052;2023-04-03T04:58:51;3.47;;;1.27;;
65275;SDS011;51875;49.994;14.052;2023-04-03T05:00:07;3.60;;;1.25;;
65275;SDS011;51875;49.994;14.052;2023-04-03T05:01:23;5.03;;;1.70;;
65275;SDS011;51875;49.994;14.052;2023-04-03T05:02:39;8.55;;;1.40;;
65275;SDS011;51875;49.994;14.052;2023-04-03T05:03:55;1.60;;;0.90;;
65275;SDS011;51875;49.994;14.052;2023-04-03T05:05:10;4.28;;;1.40;;
65275;SDS011;51875;49.994;14.052;2023-04-03T05:06:26;4.50;;;0.85;;
65275;SDS011;51875;49.994;14.052;2023-04-03T05:07:41;3.50;;;1.70;;
65275;SDS011;51875;49.994;14.052;2023-04-03T05:08:57;5.53;;;1.10;;
65275;SDS011;51875;49.994;14.052;2023-04-03T05:10:13;3.58;;;0.90;;
65275;SDS011;51875;49.994;14.052;2023-04-03T05:11:29;3.55;;;1.23;;
65275;SDS011;51875;49.994;14.052;2023-04-03T05:12:45;2.15;;;0.85;;
65275;SDS011;51875;49.994;14.052;2023-04-03T05:14:00;3.67;;;1.33;;
65275;SDS011;51875;49.994;14.052;2023-04-03T05:15:16;2.22;;;1.27;;
65275;SDS011;51875;49.994;14.052;2023-04-03T05:16:32;4.70;;;1.50;;
65275;SDS011;51875;49.994;14.052;2023-04-03T05:17:48;3.33;;;1.52;;
65275;SDS011;51875;49.994;14.052;2023-04-03T05:19:04;2.03;;;1.17;;
65275;SDS011;51875;49.994;14.052;2023-04-03T05:20:20;4.05;;;1.33;;
65275;SDS011;51875;49.994;14.052;2023-04-03T05:21:36;3.92;;;1.77;;
65275;SDS011;51875;49.994;14.052;2023-04-03T05:22:51;3.38;;;1.58;;
65275;SDS011;51875;49.994;14.052;2023-04-03T05:24:07;1.55;;;1.08;;
65275;SDS011;51875;49.994;14.052;2023-04-03T05:25:24;5.45;;;1.15;;
65275;SDS011;51875;49.994;14.052;2023-04-03T05:26:40;6.15;;;1.20;;
65275;SDS011;51875;49.994;14.052;2023-04-03T05:27:55;4.72;;;1.73;;
65275;SDS011;51875;49.994;14.052;2023-04-03T05:29:11;5.18;;;1.83;;
65275;SDS011;51875;49.994;14.052;2023-04-03T05:30:27;2.10;;;0.88;;
65275;SDS011;51875;49.994;14.052;2023-04-03T05:31:42;3.50;;;1.40;;
65275;SDS011;51875;49.994;14.052;2023-04-03T05:32:58;2.47;;;1.17;;
65275;SDS011;51875;49.994;14.052;2023-04-03T05:34:14;3.88;;;1.58;;
65275;SDS011;51875;49.994;14.052;2023-04-03T05:35:30;2.72;;;1.15;;
65275;SDS011;51875;49.994;14.052;2023-04-03T05:36:45;2.30;;;1.00;;
65275;SDS011;51875;49.994;14.052;2023-04-03T05:38:01;8.07;;;1.88;;
65275;SDS011;51875;49.994;14.052;2023-04-03T05:39:17;3.05;;;1.42;;
65275;SDS011;51875;49.994;14.052;2023-04-03T05:40:32;3.22;;;1.48;;
65275;SDS011;51875;49.994;14.052;2023-04-03T05:41:48;4.00;;;1.30;;
65275;SDS011;51875;49.994;14.052;2023-04-03T05:43:04;3.92;;;1.88;;
65275;SDS011;51875;49.994;14.052;2023-04-03T05:44:19;4.47;;;1.60;;
65275;SDS011;51875;49.994;14.052;2023-04-03T05:45:35;7.93;;;2.10;;
65275;SDS011;51875;49.994;14.052;2023-04-03T05:46:51;3.55;;;1.58;;
65275;SDS011;51875;49.994;14.052;2023-04-03T05:48:06;6.85;;;1.73;;
65275;SDS011;51875;49.994;14.052;2023-04-03T05:49:22;7.40;;;1.80;;
65275;SDS011;51875;49.994;14.052;2023-04-03T05:50:37;2.80;;;1.30;;
65275;SDS011;51875;49.994;14.052;2023-04-03T05:51:56;3.38;;;1.20;;
65275;SDS011;51875;49.994;14.052;2023-04-03T05:53:17;3.33;;;1.40;;
65275;SDS011;51875;49.994;14.052;2023-04-03T05:54:36;2.90;;;1.70;;
65275;SDS011;51875;49.994;14.052;2023-04-03T05:55:52;3.50;;;1.20;;
65275;SDS011;51875;49.994;14.052;2023-04-03T05:57:09;2.72;;;1.80;;
65275;SDS011;51875;49.994;14.052;2023-04-03T05:58:24;5.63;;;1.40;;
65275;SDS011;51875;49.994;14.052;2023-04-03T05:59:40;3.28;;;1.33;;
65275;SDS011;51875;49.994;14.052;2023-04-03T06:00:56;4.50;;;1.77;;
65275;SDS011;51875;49.994;14.052;2023-04-03T06:02:12;5.60;;;1.58;;
65275;SDS011;51875;49.994;14.052;2023-04-03T06:03:30;3.80;;;1.88;;
65275;SDS011;51875;49.994;14.052;2023-04-03T06:04:46;2.90;;;1.58;;
65275;SDS011;51875;49.994;14.052;2023-04-03T06:06:03;5.97;;;1.58;;
65275;SDS011;51875;49.994;14.052;2023-04-03T06:07:21;4.00;;;1.45;;
65275;SDS011;51875;49.994;14.052;2023-04-03T06:08:38;3.22;;;1.60;;
65275;SDS011;51875;49.994;14.052;2023-04-03T06:09:54;4.63;;;1.40;;
65275;SDS011;51875;49.994;14.052;2023-04-03T06:11:11;5.65;;;2.00;;
65275;SDS011;51875;49.994;14.052;2023-04-03T06:12:27;3.20;;;1.20;;
65275;SDS011;51875;49.994;14.052;2023-04-03T06:13:44;4.05;;;1.30;;
65275;SDS011;51875;49.994;14.052;2023-04-03T06:15:00;5.53;;;1.65;;
65275;SDS011;51875;49.994;14.052;2023-04-03T06:16:16;2.60;;;1.38;;
65275;SDS011;51875;49.994;14.052;2023-04-03T06:17:32;3.25;;;1.40;;
65275;SDS011;51875;49.994;14.052;2023-04-03T06:18:48;5.03;;;1.52;;
65275;SDS011;51875;49.994;14.052;2023-04-03T06:20:04;3.17;;;1.40;;
65275;SDS011;51875;49.994;14.052;2023-04-03T06:21:20;4.68;;;1.58;;
65275;SDS011;51875;49.994;14.052;2023-04-03T06:22:35;3.42;;;1.40;;
65275;SDS011;51875;49.994;14.052;2023-04-03T06:23:51;7.22;;;1.70;;
65275;SDS011;51875;49.994;14.052;2023-04-03T06:25:07;4.03;;;1.55;;
65275;SDS011;51875;49.994;14.052;2023-04-03T06:26:24;4.53;;;1.63;;
65275;SDS011;51875;49.994;14.052;2023-04-03T06:27:40;5.30;;;1.85;;
65275;SDS011;51875;49.994;14.052;2023-04-03T06:28:55;5.90;;;1.45;;
65275;SDS011;51875;49.994;14.052;2023-04-03T06:30:11;5.18;;;1.80;;
65275;SDS011;51875;49.994;14.052;2023-04-03T06:31:27;5.60;;;1.40;;
65275;SDS011;51875;49.994;14.052;2023-04-03T06:32:43;7.15;;;2.10;;
65275;SDS011;51875;49.994;14.052;2023-04-03T06:33:58;3.25;;;1.83;;
65275;SDS011;51875;49.994;14.052;2023-04-03T06:35:14;3.30;;;1.77;;
65275;SDS011;51875;49.994;14.052;2023-04-03T06:36:31;8.13;;;1.83;;
65275;SDS011;51875;49.994;14.052;2023-04-03T06:37:46;3.65;;;1.52;;
65275;SDS011;51875;49.994;14.052;2023-04-03T06:39:02;3.38;;;1.67;;
65275;SDS011;51875;49.994;14.052;2023-04-03T06:40:21;3.63;;;1.55;;
65275;SDS011;51875;49.994;14.052;2023-04-03T06:41:38;2.63;;;1.38;;
65275;SDS011;51875;49.994;14.052;2023-04-03T06:42:54;4.50;;;1.90;;
65275;SDS011;51875;49.994;14.052;2023-04-03T06:44:09;4.03;;;2.35;;
65275;SDS011;51875;49.994;14.052;2023-04-03T06:45:26;5.82;;;1.95;;
65275;SDS011;51875;49.994;14.052;2023-04-03T06:46:43;6.22;;;1.92;;
65275;SDS011;51875;49.994;14.052;2023-04-03T06:48:00;3.45;;;1.80;;
65275;SDS011;51875;49.994;14.052;2023-04-03T06:49:16;1.92;;;1.20;;
65275;SDS011;51875;49.994;14.052;2023-04-03T06:50:32;4.65;;;1.65;;
65275;SDS011;51875;49.994;14.052;2023-04-03T06:51:47;4.22;;;1.95;;
65275;SDS011;51875;49.994;14.052;2023-04-03T06:53:03;5.47;;;1.67;;
65275;SDS011;51875;49.994;14.052;2023-04-03T06:54:19;4.97;;;1.92;;
65275;SDS011;51875;49.994;14.052;2023-04-03T06:55:35;3.28;;;1.67;;
65275;SDS011;51875;49.994;14.052;2023-04-03T06:56:50;4.93;;;1.90;;
65275;SDS011;51875;49.994;14.052;2023-04-03T06:58:06;3.05;;;1.70;;
65275;SDS011;51875;49.994;14.052;2023-04-03T06:59:22;5.05;;;2.05;;
65275;SDS011;51875;49.994;14.052;2023-04-03T07:00:38;6.22;;;1.55;;
65275;SDS011;51875;49.994;14.052;2023-04-03T07:01:54;3.50;;;1.88;;
65275;SDS011;51875;49.994;14.052;2023-04-03T07:03:09;3.58;;;1.73;;
65275;SDS011;51875;49.994;14.052;2023-04-03T07:04:25;4.35;;;1.70;;
65275;SDS011;51875;49.994;14.052;2023-04-03T07:05:41;5.28;;;1.48;;
65275;SDS011;51875;49.994;14.052;2023-04-03T07:06:59;3.60;;;1.83;;
65275;SDS011;51875;49.994;14.052;2023-04-03T07:08:15;5.05;;;2.15;;
65275;SDS011;51875;49.994;14.052;2023-04-03T07:09:31;5.22;;;1.92;;
65275;SDS011;51875;49.994;14.052;2023-04-03T07:10:47;7.13;;;2.15;;
65275;SDS011;51875;49.994;14.052;2023-04-03T07:12:03;6.82;;;2.03;;
65275;SDS011;51875;49.994;14.052;2023-04-03T07:13:19;4.72;;;1.70;;
65275;SDS011;51875;49.994;14.052;2023-04-03T07:14:34;5.32;;;2.22;;
65275;SDS011;51875;49.994;14.052;2023-04-03T07:15:50;4.93;;;1.83;;
65275;SDS011;51875;49.994;14.052;2023-04-03T07:17:05;3.83;;;2.03;;
65275;SDS011;51875;49.994;14.052;2023-04-03T07:18:21;4.88;;;2.08;;
65275;SDS011;51875;49.994;14.052;2023-04-03T07:19:37;4.25;;;1.60;;
65275;SDS011;51875;49.994;14.052;2023-04-03T07:20:52;2.83;;;1.80;;
65275;SDS011;51875;49.994;14.052;2023-04-03T07:22:08;4.03;;;2.25;;
65275;SDS011;51875;49.994;14.052;2023-04-03T07:23:24;5.30;;;2.47;;
65275;SDS011;51875;49.994;14.052;2023-04-03T07:24:40;4.43;;;1.98;;
65275;SDS011;51875;49.994;14.052;2023-04-03T07:25:56;4.43;;;2.00;;
65275;SDS011;51875;49.994;14.052;2023-04-03T07:27:12;5.60;;;1.95;;
65275;SDS011;51875;49.994;14.052;2023-04-03T07:28:27;4.60;;;1.92;;
65275;SDS011;51875;49.994;14.052;2023-04-03T07:29:45;5.20;;;2.13;;
65275;SDS011;51875;49.994;14.052;2023-04-03T07:31:04;4.97;;;2.05;;
65275;SDS011;51875;49.994;14.052;2023-04-03T07:32:25;3.17;;;1.70;;
65275;SDS011;51875;49.994;14.052;2023-04-03T07:33:41;4.47;;;1.75;;
65275;SDS011;51875;49.994;14.052;2023-04-03T07:34:57;4.45;;;2.22;;
65275;SDS011;51875;49.994;14.052;2023-04-03T07:36:18;4.38;;;1.65;;
65275;SDS011;51875;49.994;14.052;2023-04-03T07:37:35;2.47;;;1.58;;
65275;SDS011;51875;49.994;14.052;2023-04-03T07:38:51;7.50;;;1.33;;